Time;durP1;ratioP1;P1;durP2;ratioP2;P2;SDS_P1;SDS_P2;PMS_P1;PMS_P2;Temp;Humidity;BMP_temperature;BMP_pressure;BME280_temperature;BME280_humidity;BME280_pressure;Samples;Min_cycle;Max_cycle;Signal;HPM_P1;HPM_P2
2022/12/17 13:06:47;;;;;;;67.00;34.63;;;4.60;99.90;;;;;;5093782;28;20459;-81
2022/12/17 13:09:24;;;;;;;59.42;35.33;;;4.40;99.90;;;;;;5094129;28;20062;-81
2022/12/17 13:11:59;;;;;;;62.30;33.33;;;4.70;99.90;;;;;;5089682;28;20056;-81
2022/12/17 13:14:46;;;;;;;59.55;34.95;;;4.90;99.90;;;;;;5093890;28;20063;-82
2022/12/17 13:17:14;;;;;;;61.78;34.25;;;5.20;99.90;;;;;;5093488;28;20031;-82
2022/12/17 13:19:46;;;;;;;58.22;34.63;;;5.50;99.90;;;;;;5083785;28;20511;-82
2022/12/17 13:22:28;;;;;;;59.47;34.40;;;5.70;99.90;;;;;;5089020;28;20109;-82
2022/12/17 13:25:08;;;;;;;56.45;34.05;;;5.70;99.90;;;;;;5093607;28;20028;-82
2022/12/17 13:27:34;;;;;;;55.60;33.63;;;5.40;99.90;;;;;;5089793;28;20469;-83
2022/12/17 13:30:21;;;;;;;52.22;33.17;;;5.10;99.90;;;;;;5082240;28;20085;-81
2022/12/17 13:33:22;;;;;;;59.65;33.72;;;5.50;99.90;;;;;;5092509;28;20044;-77
2022/12/17 13:36:23;;;;;;;59.92;34.75;;;5.70;99.90;;;;;;5013070;28;20040;-77
2022/12/17 13:38:57;;;;;;;57.65;33.05;;;6.50;99.90;;;;;;5085761;28;20127;-82
2022/12/17 13:41:34;;;;;;;58.30;32.90;;;5.70;99.90;;;;;;5093467;28;20073;-83
2022/12/17 13:44:21;;;;;;;58.28;32.97;;;5.70;99.90;;;;;;5093362;28;20024;-83
2022/12/17 13:46:48;;;;;;;57.53;34.55;;;6.30;99.90;;;;;;5093134;28;20039;-83
2022/12/17 13:49:18;;;;;;;62.58;35.42;;;7.10;99.90;;;;;;5093176;28;20058;-82
2022/12/17 13:51:44;;;;;;;60.88;34.67;;;7.90;99.90;;;;;;5093580;28;20468;-83
2022/12/17 13:54:18;;;;;;;58.95;33.95;;;8.50;99.90;;;;;;5093371;28;20032;-84
2022/12/17 13:56:45;;;;;;;58.97;34.08;;;8.80;98.80;;;;;;5093036;28;20024;-83
2022/12/17 13:59:21;;;;;;;54.15;32.70;;;9.20;98.10;;;;;;5092784;28;20381;-83
2022/12/17 14:01:51;;;;;;;60.83;34.78;;;9.20;97.10;;;;;;5091726;28;20028;-83
2022/12/17 14:04:22;;;;;;;62.85;34.88;;;9.40;96.90;;;;;;5092902;28;20040;-84
2022/12/17 14:06:49;;;;;;;62.15;35.35;;;9.20;96.50;;;;;;5091240;28;20024;-82
2022/12/17 14:09:17;;;;;;;62.00;34.50;;;9.00;96.70;;;;;;5091688;28;20093;-83
2022/12/17 14:14:30;;;;;;;63.53;37.53;;;8.60;97.50;;;;;;5093055;28;20024;-84
2022/12/17 14:16:56;;;;;;;63.50;35.35;;;8.20;98.30;;;;;;5092901;28;20031;-83
2022/12/17 14:19:23;;;;;;;67.18;35.67;;;8.60;97.10;;;;;;5091464;28;20044;-84
2022/12/17 14:21:49;;;;;;;74.43;37.78;;;7.70;99.40;;;;;;5092734;28;20024;-84
2022/12/17 14:24:17;;;;;;;69.32;39.33;;;6.90;98.80;;;;;;5092695;28;20100;-83
2022/12/17 14:26:50;;;;;;;72.55;39.72;;;6.10;99.90;;;;;;5092927;28;20393;-82
2022/12/17 14:29:25;;;;;;;78.43;41.65;;;5.70;99.90;;;;;;5092581;28;20387;-84
2022/12/17 14:31:54;;;;;;;72.00;40.85;;;5.60;99.90;;;;;;5092939;28;20357;-84
2022/12/17 14:34:21;;;;;;;78.30;42.08;;;5.20;99.90;;;;;;5092501;28;20032;-83
2022/12/17 14:36:57;;;;;;;78.13;41.90;;;4.80;99.90;;;;;;5092826;28;20043;-82
2022/12/17 14:39:27;;;;;;;86.72;44.30;;;4.40;99.90;;;;;;5092430;28;20125;-83
2022/12/17 14:44:54;;;;;;;86.22;43.95;;;4.10;99.90;;;;;;5095865;28;20035;-82
2022/12/17 14:47:23;;;;;;;85.65;44.45;;;3.90;99.90;;;;;;5095622;28;20027;-81
2022/12/17 14:50:23;;;;;;;86.85;44.67;;;3.20;99.90;;;;;;5095621;28;20040;-83
2022/12/17 14:52:54;;;;;;;91.22;45.47;;;2.90;99.90;;;;;;5096752;28;20039;-82
2022/12/17 14:55:59;;;;;;;93.43;47.60;;;2.70;99.90;;;;;;5087149;28;20029;-83
2022/12/17 14:58:26;;;;;;;94.57;45.00;;;2.90;99.90;;;;;;5078719;28;20097;-83
2022/12/17 15:01:11;;;;;;;87.82;45.22;;;2.90;99.90;;;;;;5096582;28;20484;-82
2022/12/17 15:03:40;;;;;;;106.80;50.22;;;2.50;99.90;;;;;;5096560;28;20502;-83
2022/12/17 15:06:11;;;;;;;95.15;47.67;;;2.40;99.90;;;;;;5096413;28;20085;-83
2022/12/17 15:08:44;;;;;;;94.53;46.45;;;2.30;99.90;;;;;;5096440;28;20042;-83
2022/12/17 15:11:13;;;;;;;97.90;48.53;;;2.00;99.90;;;;;;5096367;28;20024;-82
2022/12/17 15:13:38;;;;;;;101.70;48.90;;;2.10;99.90;;;;;;5096522;28;20460;-82
2022/12/17 15:16:04;;;;;;;105.50;50.95;;;2.00;99.90;;;;;;5096361;28;20035;-81
2022/12/17 15:18:30;;;;;;;116.78;53.20;;;1.40;99.90;;;;;;5095043;28;20040;-82
2022/12/17 15:20:56;;;;;;;118.80;54.28;;;1.30;99.90;;;;;;5094876;28;20418;-83
2022/12/17 15:23:23;;;;;;;115.72;53.45;;;1.00;99.90;;;;;;5096435;28;20028;-81
2022/12/17 15:25:50;;;;;;;118.63;53.90;;;1.30;99.90;;;;;;5095921;28;20024;-82
2022/12/17 15:28:17;;;;;;;111.07;52.67;;;1.40;99.90;;;;;;5096135;28;20468;-83
2022/12/17 15:30:44;;;;;;;124.20;54.30;;;1.30;99.90;;;;;;5096062;28;20036;-83
2022/12/17 15:33:10;;;;;;;127.28;54.15;;;1.10;99.90;;;;;;5094670;28;20028;-82
2022/12/17 15:35:37;;;;;;;116.05;52.45;;;0.90;99.90;;;;;;5095922;28;20129;-83
2022/12/17 15:38:04;;;;;;;118.22;52.20;;;0.70;99.90;;;;;;5095762;28;20085;-82
2022/12/17 15:40:31;;;;;;;122.78;54.63;;;0.40;99.90;;;;;;5095704;28;20103;-82
2022/12/17 15:43:12;;;;;;;123.68;52.03;;;0.00;99.90;;;;;;5095871;28;20081;-82
2022/12/17 15:45:43;;;;;;;99.10;41.20;;;0.00;99.90;;;;;;5094412;28;20541;-83
2022/12/17 15:48:14;;;;;;;129.57;56.75;;;0.30;99.90;;;;;;5095711;28;20024;-82
2022/12/17 15:50:40;;;;;;;139.18;55.90;;;0.50;99.90;;;;;;5095777;28;20060;-82
2022/12/17 15:53:07;;;;;;;158.05;60.75;;;0.40;99.90;;;;;;5094288;28;20027;-80
2022/12/17 15:55:34;;;;;;;141.43;56.80;;;0.20;99.90;;;;;;5093946;28;20020;-82
2022/12/17 15:57:59;;;;;;;146.85;60.13;;;0.20;99.90;;;;;;5095461;28;20426;-81
2022/12/17 16:00:25;;;;;;;143.93;62.17;;;0.00;99.90;;;;;;5095288;28;20028;-82
2022/12/17 16:02:51;;;;;;;146.70;59.05;;;-0.10;99.90;;;;;;5095622;28;20036;-80
2022/12/17 16:05:18;;;;;;;152.68;61.55;;;0.20;99.90;;;;;;5095177;28;20028;-81
2022/12/17 16:07:44;;;;;;;164.25;58.10;;;0.10;99.90;;;;;;5095213;28;20032;-82
2022/12/17 16:10:11;;;;;;;148.93;59.85;;;0.00;99.90;;;;;;5093941;28;20467;-81
2022/12/17 16:12:38;;;;;;;162.52;57.92;;;-0.10;99.90;;;;;;5095392;28;20528;-81
2022/12/17 16:15:04;;;;;;;136.90;55.67;;;0.00;99.90;;;;;;5095094;28;20373;-81
2022/12/17 16:17:30;;;;;;;147.52;55.88;;;-0.10;99.90;;;;;;5094809;28;20063;-81
2022/12/17 16:19:56;;;;;;;138.60;55.40;;;0.00;99.90;;;;;;5095108;28;20519;-81
2022/12/17 16:22:22;;;;;;;157.45;57.28;;;0.00;99.90;;;;;;5094731;28;20032;-81
2022/12/17 16:24:48;;;;;;;146.15;54.97;;;0.10;99.90;;;;;;5095172;28;20050;-80
2022/12/17 16:27:16;;;;;;;138.93;55.63;;;0.00;99.90;;;;;;5094785;28;20028;-80
2022/12/17 16:29:43;;;;;;;184.07;55.13;;;0.20;99.90;;;;;;5094744;28;20086;-82
2022/12/17 16:32:08;;;;;;;179.80;60.90;;;0.10;99.90;;;;;;5094634;28;20020;-81
2022/12/17 16:34:34;;;;;;;163.70;63.28;;;-0.10;99.90;;;;;;5094799;28;20032;-80
2022/12/17 16:37:00;;;;;;;191.65;55.95;;;-0.40;99.90;;;;;;5094561;28;20107;-80
2022/12/17 16:39:26;;;;;;;205.23;58.38;;;-0.60;99.90;;;;;;5094732;28;20032;-80
2022/12/17 16:41:52;;;;;;;173.68;56.33;;;-0.80;99.90;;;;;;5094761;28;20089;-80
2022/12/17 16:44:18;;;;;;;151.73;57.15;;;-0.60;99.90;;;;;;5094611;28;20028;-77
2022/12/17 16:46:45;;;;;;;149.68;57.58;;;-0.50;99.90;;;;;;5093948;28;20060;-78
2022/12/17 16:49:18;;;;;;;148.20;59.58;;;-0.50;99.90;;;;;;5093402;28;20032;-80
2022/12/17 16:51:46;;;;;;;202.48;59.78;;;-0.60;99.90;;;;;;5094746;28;20024;-80
2022/12/17 16:54:16;;;;;;;174.90;61.53;;;-0.90;99.90;;;;;;5094827;28;20511;-79
2022/12/17 16:56:42;;;;;;;179.95;61.53;;;-1.10;99.90;;;;;;5092698;28;20097;-79
2022/12/17 16:59:10;;;;;;;153.70;62.17;;;-1.10;99.90;;;;;;5094004;28;20131;-79
2022/12/17 17:01:37;;;;;;;162.15;65.07;;;-1.10;99.90;;;;;;5092963;28;20027;-79
2022/12/17 17:04:06;;;;;;;165.65;62.80;;;-1.20;99.90;;;;;;5094830;28;20569;-79
2022/12/17 17:06:31;;;;;;;148.35;58.08;;;-1.00;99.90;;;;;;5091839;28;20020;-80
2022/12/17 17:08:57;;;;;;;160.38;59.58;;;-0.80;99.90;;;;;;5092966;28;20157;-80
2022/12/17 17:11:24;;;;;;;248.60;59.33;;;-0.60;99.90;;;;;;5092857;28;20036;-79
2022/12/17 17:13:53;;;;;;;189.85;55.72;;;-0.90;99.90;;;;;;5093572;28;20476;-79
2022/12/17 17:16:22;;;;;;;147.88;53.60;;;-1.20;99.90;;;;;;5093846;28;20099;-78
2022/12/17 17:18:49;;;;;;;155.93;56.83;;;-1.30;99.90;;;;;;5093735;28;20097;-79
2022/12/17 17:21:18;;;;;;;144.25;50.42;;;-1.20;99.90;;;;;;5094204;28;20016;-80
2022/12/17 17:23:48;;;;;;;132.23;50.40;;;-1.00;99.90;;;;;;5093666;28;20034;-79
2022/12/17 17:26:15;;;;;;;119.60;49.45;;;-0.80;99.90;;;;;;5092823;28;20387;-79
2022/12/17 17:28:41;;;;;;;136.32;51.83;;;-0.70;99.90;;;;;;5093314;28;20476;-79
2022/12/17 17:31:09;;;;;;;170.10;48.13;;;-1.00;99.90;;;;;;5093550;28;20020;-79
2022/12/17 17:33:37;;;;;;;188.75;45.38;;;-1.10;99.90;;;;;;5093712;28;20035;-79
2022/12/17 17:36:26;;;;;;;134.68;48.60;;;-1.10;99.90;;;;;;5092295;28;20085;-79
2022/12/17 17:38:54;;;;;;;154.18;45.90;;;-0.90;99.90;;;;;;5093666;28;20036;-80
2022/12/17 17:41:22;;;;;;;122.70;47.97;;;-0.90;99.90;;;;;;5093003;28;20019;-78
2022/12/17 17:43:57;;;;;;;135.80;45.10;;;-1.00;99.90;;;;;;5093711;28;20036;-79
2022/12/17 17:46:23;;;;;;;117.53;50.00;;;-1.20;99.90;;;;;;5093154;28;20074;-79
2022/12/17 17:48:50;;;;;;;152.27;45.42;;;-1.10;99.90;;;;;;5093531;28;20072;-79
2022/12/17 17:51:18;;;;;;;138.70;51.88;;;-1.20;99.90;;;;;;5092654;28;21934;-79
2022/12/17 17:53:45;;;;;;;121.97;49.60;;;-1.20;99.90;;;;;;5094013;28;20028;-80
2022/12/17 17:56:15;;;;;;;126.45;51.20;;;-1.20;99.90;;;;;;5076003;28;20028;-79
2022/12/17 17:58:46;;;;;;;127.68;50.72;;;-1.00;99.90;;;;;;5096172;28;20032;-80
2022/12/17 18:01:16;;;;;;;128.48;48.88;;;-0.90;99.90;;;;;;5098156;28;20036;-79
2022/12/17 18:03:41;;;;;;;126.85;49.65;;;-1.20;99.90;;;;;;5108277;28;20028;-79
2022/12/17 18:06:12;;;;;;;123.22;47.35;;;-1.00;99.90;;;;;;5107202;28;20042;-80
2022/12/17 18:08:41;;;;;;;125.05;47.97;;;-1.00;99.90;;;;;;5107266;28;20077;-79
2022/12/17 18:11:10;;;;;;;137.25;49.25;;;-1.00;99.90;;;;;;5103703;28;20476;-79
2022/12/17 18:13:54;;;;;;;120.57;48.92;;;-0.80;99.90;;;;;;5096266;28;20020;-80
2022/12/17 18:16:38;;;;;;;125.60;46.65;;;-1.00;99.90;;;;;;5095945;28;20082;-79
2022/12/17 18:19:07;;;;;;;136.43;44.33;;;-1.10;99.90;;;;;;5093013;28;20074;-79
2022/12/17 18:21:34;;;;;;;128.43;41.40;;;-1.30;99.90;;;;;;5091801;28;20028;-79
2022/12/17 18:24:05;;;;;;;106.10;45.53;;;-1.40;99.90;;;;;;5092594;28;20044;-79
2022/12/17 18:26:38;;;;;;;122.68;45.83;;;-1.40;99.90;;;;;;5092766;28;20427;-80
2022/12/17 18:29:21;;;;;;;115.78;46.78;;;-1.40;99.90;;;;;;5092632;28;20032;-79
2022/12/17 18:31:49;;;;;;;117.03;47.45;;;-1.30;99.90;;;;;;5092765;28;20028;-80
2022/12/17 18:34:18;;;;;;;128.18;49.67;;;-1.10;99.90;;;;;;5092631;28;20065;-80
2022/12/17 18:36:45;;;;;;;121.65;47.97;;;-1.00;99.90;;;;;;5092785;28;20059;-79
2022/12/17 18:39:17;;;;;;;129.38;50.40;;;-1.10;99.90;;;;;;5091040;28;20044;-80
2022/12/17 18:44:31;;;;;;;132.93;48.17;;;-1.20;99.90;;;;;;5092487;28;20473;-80
2022/12/17 18:46:57;;;;;;;128.98;48.50;;;-1.30;99.90;;;;;;5092893;28;20090;-80
2022/12/17 18:49:23;;;;;;;127.32;47.92;;;-1.20;99.90;;;;;;5092412;28;20060;-80
2022/12/17 18:51:49;;;;;;;133.75;51.78;;;-1.10;99.90;;;;;;5092503;28;20111;-80
2022/12/17 18:54:19;;;;;;;144.75;53.60;;;-1.30;99.90;;;;;;5091971;28;20036;-80
2022/12/17 18:56:45;;;;;;;145.18;52.90;;;-1.10;99.90;;;;;;5092422;28;20527;-80
2022/12/17 18:59:17;;;;;;;138.95;51.67;;;-1.20;99.90;;;;;;5091108;28;20044;-80
2022/12/17 19:01:44;;;;;;;146.82;52.42;;;-1.30;99.90;;;;;;5087359;28;20025;-80
2022/12/17 19:04:13;;;;;;;149.15;53.40;;;-1.40;99.90;;;;;;5083484;28;20025;-80
2022/12/17 19:06:40;;;;;;;145.73;52.60;;;-1.40;99.90;;;;;;5092054;28;20069;-80
2022/12/17 19:09:07;;;;;;;127.75;48.00;;;-1.40;99.90;;;;;;5090652;28;20024;-80
2022/12/17 19:11:34;;;;;;;139.68;49.70;;;-1.40;99.90;;;;;;5092497;28;20024;-80
2022/12/17 19:14:01;;;;;;;134.80;48.70;;;-1.20;99.90;;;;;;5092384;28;20028;-80
2022/12/17 19:16:28;;;;;;;114.25;44.38;;;-1.10;99.90;;;;;;5092399;28;20048;-80
2022/12/17 19:19:03;;;;;;;116.10;44.85;;;-1.20;99.90;;;;;;5091864;28;20040;-81
2022/12/17 19:21:30;;;;;;;117.07;44.80;;;-1.20;99.90;;;;;;5092288;28;20027;-81
2022/12/17 19:23:58;;;;;;;131.07;43.45;;;-1.40;99.90;;;;;;5090889;28;20169;-80
2022/12/17 19:26:24;;;;;;;126.90;45.10;;;-1.50;99.90;;;;;;5092269;28;20113;-79
2022/12/17 19:28:53;;;;;;;134.82;47.40;;;-1.50;99.90;;;;;;5092362;28;20027;-80
2022/12/17 19:31:21;;;;;;;127.05;48.20;;;-1.50;99.90;;;;;;5095011;28;20464;-78
2022/12/17 19:33:47;;;;;;;154.82;49.50;;;-1.40;99.90;;;;;;5095128;28;20075;-79
2022/12/17 19:36:16;;;;;;;120.07;47.80;;;-1.50;99.90;;;;;;5094423;28;20020;-79
2022/12/17 19:38:42;;;;;;;137.75;48.47;;;-1.30;99.90;;;;;;5094307;28;20038;-79
2022/12/17 19:41:16;;;;;;;122.40;46.28;;;-1.30;99.90;;;;;;5095440;28;20073;-80
2022/12/17 19:43:43;;;;;;;130.57;47.00;;;-1.00;99.90;;;;;;5095738;28;20101;-79
2022/12/17 19:46:11;;;;;;;122.80;46.28;;;-1.20;99.90;;;;;;5095199;28;20097;-79
2022/12/17 19:48:39;;;;;;;127.43;46.63;;;-1.40;99.90;;;;;;5095567;28;20174;-79
2022/12/17 19:51:07;;;;;;;122.10;47.70;;;-1.60;99.90;;;;;;5094395;28;20020;-79
2022/12/17 19:53:35;;;;;;;118.40;45.38;;;-1.70;99.90;;;;;;5095356;28;20028;-80
2022/12/17 19:56:17;;;;;;;111.82;44.05;;;-1.70;99.90;;;;;;5094685;28;20020;-79
2022/12/17 19:58:45;;;;;;;135.00;48.63;;;-1.80;99.90;;;;;;5095364;28;20428;-79
2022/12/17 20:01:14;;;;;;;114.43;47.95;;;-1.70;99.90;;;;;;5093872;28;20492;-80
2022/12/17 20:03:41;;;;;;;126.13;46.75;;;-1.60;99.90;;;;;;5094343;28;20468;-80
2022/12/17 20:06:08;;;;;;;113.80;44.25;;;-1.50;99.90;;;;;;5095326;28;20035;-80
2022/12/17 20:08:34;;;;;;;105.07;41.22;;;-1.70;99.90;;;;;;5094776;28;20369;-80
2022/12/17 20:11:02;;;;;;;131.88;48.88;;;-1.80;99.90;;;;;;5095074;28;20032;-80
2022/12/17 20:13:28;;;;;;;126.72;47.88;;;-1.80;99.90;;;;;;5093481;28;20024;-80
2022/12/17 20:16:01;;;;;;;118.95;47.55;;;-1.90;99.90;;;;;;5094941;28;20538;-80
2022/12/17 20:18:28;;;;;;;109.88;43.47;;;-1.80;99.90;;;;;;5094965;28;20567;-80
2022/12/17 20:21:02;;;;;;;115.13;42.40;;;-1.70;99.90;;;;;;5094532;28;20024;-80
2022/12/17 20:23:28;;;;;;;116.40;42.30;;;-1.50;99.90;;;;;;5094940;28;20508;-80
2022/12/17 20:26:05;;;;;;;121.07;45.35;;;-1.60;99.90;;;;;;5094660;28;20023;-80
2022/12/17 20:28:32;;;;;;;106.57;44.10;;;-1.70;99.90;;;;;;5083515;28;20063;-80
2022/12/17 20:30:58;;;;;;;117.13;43.50;;;-1.60;99.90;;;;;;5092591;28;20016;-80
2022/12/17 20:33:24;;;;;;;97.40;36.58;;;-1.50;99.90;;;;;;5095141;28;20016;-80
2022/12/17 20:35:50;;;;;;;94.13;39.08;;;-1.40;99.90;;;;;;5094198;28;20384;-80
2022/12/17 20:38:16;;;;;;;97.95;37.65;;;-1.50;99.90;;;;;;5094634;28;20515;-80
2022/12/17 20:40:42;;;;;;;95.28;35.20;;;-1.70;99.90;;;;;;5094558;28;20024;-79
2022/12/17 20:43:08;;;;;;;96.45;37.63;;;-1.80;99.90;;;;;;5094602;28;20020;-80
2022/12/17 20:45:34;;;;;;;76.90;34.88;;;-1.90;99.90;;;;;;5093444;28;20028;-80
2022/12/17 20:48:00;;;;;;;91.47;35.15;;;-1.90;99.90;;;;;;5093022;28;20044;-80
2022/12/17 20:50:26;;;;;;;83.93;35.17;;;-2.00;99.90;;;;;;5094565;28;20138;-80
2022/12/17 20:52:51;;;;;;;90.00;35.40;;;-2.00;99.90;;;;;;5094466;28;20016;-80
2022/12/17 20:55:18;;;;;;;88.95;36.05;;;-1.90;99.90;;;;;;5093210;28;20077;-80
2022/12/17 20:57:43;;;;;;;86.50;34.97;;;-1.70;99.90;;;;;;5094323;28;20023;-80
2022/12/17 21:00:10;;;;;;;80.57;34.08;;;-1.90;99.90;;;;;;5094578;28;20024;-80
2022/12/17 21:02:36;;;;;;;96.47;39.00;;;-1.90;99.90;;;;;;5093095;28;20024;-80
2022/12/17 21:05:03;;;;;;;89.55;36.88;;;-2.00;99.90;;;;;;5093968;28;20024;-79
2022/12/17 21:07:29;;;;;;;87.75;36.70;;;-2.00;99.90;;;;;;5093924;28;20486;-80
2022/12/17 21:09:55;;;;;;;95.20;37.78;;;-2.10;99.90;;;;;;5094201;28;20052;-80
2022/12/17 21:12:21;;;;;;;98.35;42.50;;;-2.00;99.90;;;;;;5094030;28;20091;-80
2022/12/17 21:14:46;;;;;;;94.30;39.35;;;-2.00;99.90;;;;;;5092967;28;20494;-80
2022/12/17 21:17:13;;;;;;;95.32;37.75;;;-1.90;99.90;;;;;;5093867;28;20035;-80
2022/12/17 21:19:39;;;;;;;95.78;39.00;;;-1.70;99.90;;;;;;5093535;28;20119;-80
2022/12/17 21:22:06;;;;;;;86.75;36.55;;;-1.50;99.90;;;;;;5093920;28;20024;-79
2022/12/17 21:24:32;;;;;;;91.35;35.75;;;-1.40;99.90;;;;;;5094576;28;20046;-80
2022/12/17 21:26:58;;;;;;;96.88;38.35;;;-1.50;99.90;;;;;;5093876;28;20095;-79
2022/12/17 21:29:23;;;;;;;79.03;33.05;;;-1.40;99.90;;;;;;5093862;28;20075;-79
2022/12/17 21:31:51;;;;;;;91.43;34.03;;;-1.60;99.90;;;;;;5093779;28;20028;-79
2022/12/17 21:34:23;;;;;;;84.22;34.53;;;-1.70;99.90;;;;;;5093166;28;20521;-79
2022/12/17 21:36:50;;;;;;;86.80;34.40;;;-1.70;99.90;;;;;;5093457;28;20361;-78
2022/12/17 21:39:17;;;;;;;103.65;34.92;;;-1.70;99.90;;;;;;5093532;28;20043;-79
2022/12/17 21:43:00;;;;;;;100.70;35.85;;;-1.90;99.90;;;;;;5093648;28;20511;-79
2022/12/17 21:44:32;;;;;;;97.20;35.92;;;-2.00;99.90;;;;;;5093184;28;20032;-80
2022/12/17 21:46:58;;;;;;;84.43;35.38;;;-2.10;99.90;;;;;;5093828;28;20024;-79
2022/12/17 21:49:24;;;;;;;99.35;37.72;;;-2.10;99.90;;;;;;5092830;28;20365;-81
2022/12/17 21:51:50;;;;;;;96.57;35.28;;;-2.10;99.90;;;;;;5093234;28;20034;-79
2022/12/17 21:54:15;;;;;;;109.53;39.00;;;-2.00;99.90;;;;;;5092979;28;20020;-79
2022/12/17 21:56:41;;;;;;;113.20;41.55;;;-2.10;99.90;;;;;;5093252;28;20112;-79
2022/12/17 21:59:07;;;;;;;129.13;44.90;;;-2.10;99.90;;;;;;5092970;28;20090;-79
2022/12/17 22:01:33;;;;;;;116.60;45.28;;;-2.10;99.90;;;;;;5093327;28;20056;-79
2022/12/17 22:04:03;;;;;;;117.78;44.90;;;-2.10;99.90;;;;;;5092887;28;20081;-79
2022/12/17 22:06:30;;;;;;;107.82;42.03;;;-1.90;99.90;;;;;;5092995;28;20526;-79
2022/12/17 22:08:57;;;;;;;124.05;45.38;;;-1.90;99.90;;;;;;5092799;28;20748;-79
2022/12/17 22:11:25;;;;;;;116.13;42.97;;;-1.90;99.90;;;;;;5094094;28;20484;-76
2022/12/17 22:14:10;;;;;;;130.80;43.58;;;-1.80;99.90;;;;;;5093388;28;20042;-76
2022/12/17 22:16:42;;;;;;;119.18;44.08;;;-1.90;99.90;;;;;;5093268;28;20411;-79
2022/12/17 22:19:14;;;;;;;120.30;46.28;;;-1.80;99.90;;;;;;5092438;28;20073;-79
2022/12/17 22:21:40;;;;;;;;;;;-1.80;99.90;;;;;;5093647;28;20031;-78
2022/12/17 22:24:11;;;;;;;112.50;40.25;;;-1.90;99.90;;;;;;5092739;28;20341;-79
2022/12/17 22:26:37;;;;;;;109.55;42.13;;;-2.00;99.90;;;;;;5093043;28;20036;-79
2022/12/17 22:29:02;;;;;;;99.95;39.38;;;-1.90;99.90;;;;;;5093148;28;20153;-79
2022/12/17 22:34:13;;;;;;;77.10;31.30;;;-1.50;99.90;;;;;;5092704;28;20024;-79
2022/12/17 22:36:39;;;;;;;79.15;32.60;;;-1.50;99.90;;;;;;5091543;28;20101;-79
2022/12/17 22:39:08;;;;;;;69.88;30.00;;;-1.60;99.90;;;;;;5092464;28;20024;-79
2022/12/17 22:44:19;;;;;;;70.18;30.77;;;-1.50;99.90;;;;;;5091286;28;20488;-80
2022/12/17 22:46:45;;;;;;;75.82;33.05;;;-1.40;99.90;;;;;;5092720;28;20032;-79
2022/12/17 22:49:10;;;;;;;71.35;31.08;;;-1.30;99.90;;;;;;5092585;28;20050;-79
2022/12/17 22:51:38;;;;;;;73.47;29.55;;;-1.20;99.90;;;;;;5080483;28;20027;-79
2022/12/17 22:54:08;;;;;;;70.50;30.38;;;-1.00;99.90;;;;;;5076641;28;20028;-80
2022/12/17 22:56:38;;;;;;;66.72;29.90;;;-1.00;99.90;;;;;;5092615;28;20132;-79
2022/12/17 22:59:04;;;;;;;72.88;31.85;;;-1.10;99.90;;;;;;5091356;28;20058;-79
2022/12/17 23:01:31;;;;;;;67.93;30.90;;;-1.10;99.90;;;;;;5092072;28;20678;-80
2022/12/17 23:03:58;;;;;;;66.13;30.70;;;-1.30;99.90;;;;;;5092544;28;20076;-79
2022/12/17 23:06:24;;;;;;;70.70;33.15;;;-1.40;99.90;;;;;;5095988;28;20433;-79
2022/12/17 23:08:50;;;;;;;69.32;30.73;;;-1.40;99.90;;;;;;5096518;28;20372;-79
2022/12/17 23:11:21;;;;;;;65.55;29.83;;;-1.40;99.90;;;;;;5096579;28;20039;-80
2022/12/17 23:13:47;;;;;;;72.85;31.77;;;-1.30;99.90;;;;;;5095083;28;20035;-79
2022/12/17 23:16:13;;;;;;;60.70;30.58;;;-1.40;99.90;;;;;;5095980;28;20459;-80
2022/12/17 23:18:39;;;;;;;74.47;32.08;;;-1.50;99.90;;;;;;5095044;28;20074;-80
2022/12/17 23:21:12;;;;;;;71.93;31.77;;;-1.60;99.90;;;;;;5095175;28;20019;-79
2022/12/17 23:23:38;;;;;;;69.90;30.55;;;-1.50;99.90;;;;;;5096481;28;20050;-80
2022/12/17 23:26:16;;;;;;;72.03;31.92;;;-1.60;99.90;;;;;;5096249;28;20323;-80
2022/12/17 23:28:43;;;;;;;74.78;31.10;;;-1.70;99.90;;;;;;5096684;28;20377;-80
2022/12/17 23:31:14;;;;;;;75.15;32.92;;;-1.80;99.90;;;;;;5094198;28;20392;-80
2022/12/17 23:33:41;;;;;;;74.00;33.63;;;-1.70;99.90;;;;;;5096256;28;20122;-80
2022/12/17 23:36:10;;;;;;;82.40;36.55;;;-2.00;99.90;;;;;;5095696;28;20026;-80
2022/12/17 23:38:36;;;;;;;86.00;36.78;;;-2.10;99.90;;;;;;5094795;28;20400;-81
2022/12/17 23:41:07;;;;;;;76.65;33.83;;;-2.20;99.90;;;;;;5094309;28;20030;-80
2022/12/17 23:43:33;;;;;;;88.18;37.75;;;-2.10;99.90;;;;;;5095866;28;20115;-80
2022/12/17 23:45:59;;;;;;;85.53;33.72;;;-2.00;99.90;;;;;;5095106;28;20054;-81
2022/12/17 23:48:33;;;;;;;83.47;34.67;;;-2.00;99.90;;;;;;5095954;28;20480;-80
2022/12/17 23:50:59;;;;;;;77.95;33.63;;;-2.00;99.90;;;;;;5094151;28;20081;-80
2022/12/17 23:53:27;;;;;;;70.70;32.15;;;-2.00;99.90;;;;;;5096216;28;20407;-81
2022/12/17 23:55:52;;;;;;;82.68;34.08;;;-2.10;99.90;;;;;;5095458;28;20016;-80
2022/12/17 23:58:18;;;;;;;77.18;34.08;;;-2.10;99.90;;;;;;5095132;28;20484;-79
